sensor_id;sensor_type;location;lat;lon;timestamp;P1;durP1;ratioP1;P2;durP2;ratioP2
20379;SDS011;10349;48.666;8.948;2022-09-09T00:04:00;1.90;;;1.80;;
20379;SDS011;10349;48.666;8.948;2022-09-09T00:06:43;2.33;;;2.13;;
20379;SDS011;10349;48.666;8.948;2022-09-09T00:09:29;1.73;;;1.50;;
20379;SDS011;10349;48.666;8.948;2022-09-09T00:17:37;1.73;;;1.63;;
20379;SDS011;10349;48.666;8.948;2022-09-09T00:26:02;1.73;;;1.47;;
20379;SDS011;10349;48.666;8.948;2022-09-09T00:31:41;1.73;;;1.50;;
20379;SDS011;10349;48.666;8.948;2022-09-09T00:36:43;1.93;;;1.80;;
20379;SDS011;10349;48.666;8.948;2022-09-09T00:39:27;1.77;;;1.67;;
20379;SDS011;10349;48.666;8.948;2022-09-09T00:44:39;1.57;;;1.27;;
20379;SDS011;10349;48.666;8.948;2022-09-09T00:58:06;1.40;;;1.30;;
20379;SDS011;10349;48.666;8.948;2022-09-09T01:00:52;2.80;;;1.60;;
20379;SDS011;10349;48.666;8.948;2022-09-09T01:06:02;1.83;;;1.50;;
20379;SDS011;10349;48.666;8.948;2022-09-09T01:11:22;5.13;;;1.97;;
20379;SDS011;10349;48.666;8.948;2022-09-09T01:14:11;2.57;;;2.37;;
20379;SDS011;10349;48.666;8.948;2022-09-09T01:16:39;2.67;;;1.53;;
20379;SDS011;10349;48.666;8.948;2022-09-09T01:19:07;4.47;;;3.40;;
20379;SDS011;10349;48.666;8.948;2022-09-09T01:21:50;6.00;;;2.47;;
20379;SDS011;10349;48.666;8.948;2022-09-09T01:28:00;2.70;;;1.93;;
20379;SDS011;10349;48.666;8.948;2022-09-09T01:30:37;3.60;;;2.00;;
20379;SDS011;10349;48.666;8.948;2022-09-09T01:33:05;1.47;;;1.37;;
20379;SDS011;10349;48.666;8.948;2022-09-09T01:35:57;1.57;;;1.47;;
20379;SDS011;10349;48.666;8.948;2022-09-09T01:38:29;1.53;;;1.43;;
20379;SDS011;10349;48.666;8.948;2022-09-09T01:40:57;2.43;;;2.23;;
20379;SDS011;10349;48.666;8.948;2022-09-09T01:43:31;1.90;;;1.80;;
20379;SDS011;10349;48.666;8.948;2022-09-09T01:45:59;2.80;;;1.50;;
20379;SDS011;10349;48.666;8.948;2022-09-09T01:48:26;1.97;;;1.73;;
20379;SDS011;10349;48.666;8.948;2022-09-09T01:51:01;1.50;;;1.30;;
20379;SDS011;10349;48.666;8.948;2022-09-09T01:53:27;3.50;;;1.40;;
20379;SDS011;10349;48.666;8.948;2022-09-09T02:04:18;1.47;;;1.37;;
20379;SDS011;10349;48.666;8.948;2022-09-09T02:06:47;2.03;;;1.23;;
20379;SDS011;10349;48.666;8.948;2022-09-09T02:09:24;7.13;;;1.80;;
20379;SDS011;10349;48.666;8.948;2022-09-09T02:11:54;2.17;;;1.73;;
20379;SDS011;10349;48.666;8.948;2022-09-09T02:14:39;1.47;;;1.30;;
20379;SDS011;10349;48.666;8.948;2022-09-09T02:17:10;4.73;;;1.80;;
20379;SDS011;10349;48.666;8.948;2022-09-09T02:20:30;4.50;;;1.60;;
20379;SDS011;10349;48.666;8.948;2022-09-09T02:22:55;6.60;;;2.20;;
20379;SDS011;10349;48.666;8.948;2022-09-09T02:25:24;1.97;;;1.77;;
20379;SDS011;10349;48.666;8.948;2022-09-09T02:27:55;2.40;;;2.03;;
20379;SDS011;10349;48.666;8.948;2022-09-09T02:30:23;5.43;;;1.33;;
20379;SDS011;10349;48.666;8.948;2022-09-09T02:32:54;4.40;;;1.70;;
20379;SDS011;10349;48.666;8.948;2022-09-09T02:35:35;2.00;;;1.90;;
20379;SDS011;10349;48.666;8.948;2022-09-09T02:38:04;2.03;;;1.50;;
20379;SDS011;10349;48.666;8.948;2022-09-09T02:40:33;1.43;;;1.33;;
20379;SDS011;10349;48.666;8.948;2022-09-09T02:43:02;1.70;;;1.60;;
20379;SDS011;10349;48.666;8.948;2022-09-09T02:45:44;1.23;;;1.13;;
20379;SDS011;10349;48.666;8.948;2022-09-09T02:48:21;1.40;;;1.30;;
20379;SDS011;10349;48.666;8.948;2022-09-09T02:56:17;1.97;;;1.70;;
20379;SDS011;10349;48.666;8.948;2022-09-09T02:58:47;1.70;;;1.23;;
20379;SDS011;10349;48.666;8.948;2022-09-09T03:01:14;1.97;;;1.87;;
20379;SDS011;10349;48.666;8.948;2022-09-09T03:03:41;5.73;;;1.60;;
20379;SDS011;10349;48.666;8.948;2022-09-09T03:06:11;1.73;;;1.63;;
20379;SDS011;10349;48.666;8.948;2022-09-09T03:08:38;2.30;;;1.47;;
20379;SDS011;10349;48.666;8.948;2022-09-09T03:11:04;1.50;;;1.40;;
20379;SDS011;10349;48.666;8.948;2022-09-09T03:13:33;1.93;;;1.63;;
20379;SDS011;10349;48.666;8.948;2022-09-09T03:15:59;1.37;;;1.27;;
20379;SDS011;10349;48.666;8.948;2022-09-09T03:18:26;1.47;;;1.37;;
20379;SDS011;10349;48.666;8.948;2022-09-09T03:20:53;2.70;;;1.50;;
20379;SDS011;10349;48.666;8.948;2022-09-09T03:23:20;2.03;;;1.83;;
20379;SDS011;10349;48.666;8.948;2022-09-09T03:25:48;1.50;;;1.40;;
20379;SDS011;10349;48.666;8.948;2022-09-09T03:28:16;2.83;;;1.57;;
20379;SDS011;10349;48.666;8.948;2022-09-09T03:30:42;2.80;;;1.70;;
20379;SDS011;10349;48.666;8.948;2022-09-09T03:33:08;2.73;;;1.57;;
20379;SDS011;10349;48.666;8.948;2022-09-09T03:35:34;1.50;;;1.40;;
20379;SDS011;10349;48.666;8.948;2022-09-09T03:38:00;2.80;;;1.60;;
20379;SDS011;10349;48.666;8.948;2022-09-09T03:40:28;3.70;;;1.40;;
20379;SDS011;10349;48.666;8.948;2022-09-09T03:42:54;1.37;;;1.20;;
20379;SDS011;10349;48.666;8.948;2022-09-09T03:45:19;1.97;;;1.50;;
20379;SDS011;10349;48.666;8.948;2022-09-09T03:47:46;1.30;;;1.20;;
20379;SDS011;10349;48.666;8.948;2022-09-09T03:50:11;2.67;;;1.80;;
20379;SDS011;10349;48.666;8.948;2022-09-09T03:52:42;2.03;;;1.47;;
20379;SDS011;10349;48.666;8.948;2022-09-09T03:55:15;1.63;;;1.33;;
20379;SDS011;10349;48.666;8.948;2022-09-09T03:57:40;1.47;;;1.27;;
20379;SDS011;10349;48.666;8.948;2022-09-09T04:00:08;3.00;;;1.50;;
20379;SDS011;10349;48.666;8.948;2022-09-09T04:02:47;3.63;;;1.53;;
20379;SDS011;10349;48.666;8.948;2022-09-09T04:05:15;1.50;;;1.40;;
20379;SDS011;10349;48.666;8.948;2022-09-09T04:07:43;5.80;;;2.13;;
20379;SDS011;10349;48.666;8.948;2022-09-09T04:10:08;2.33;;;2.13;;
20379;SDS011;10349;48.666;8.948;2022-09-09T04:12:36;2.40;;;1.80;;
20379;SDS011;10349;48.666;8.948;2022-09-09T04:15:02;2.13;;;1.50;;
20379;SDS011;10349;48.666;8.948;2022-09-09T04:17:28;3.77;;;1.50;;
20379;SDS011;10349;48.666;8.948;2022-09-09T04:19:54;2.10;;;1.90;;
20379;SDS011;10349;48.666;8.948;2022-09-09T04:22:20;4.00;;;2.07;;
20379;SDS011;10349;48.666;8.948;2022-09-09T04:24:47;1.80;;;1.70;;
20379;SDS011;10349;48.666;8.948;2022-09-09T04:27:13;4.50;;;1.70;;
20379;SDS011;10349;48.666;8.948;2022-09-09T04:29:39;3.40;;;1.50;;
20379;SDS011;10349;48.666;8.948;2022-09-09T04:32:06;2.13;;;1.87;;
20379;SDS011;10349;48.666;8.948;2022-09-09T04:34:32;2.00;;;1.90;;
20379;SDS011;10349;48.666;8.948;2022-09-09T04:36:58;4.50;;;2.10;;
20379;SDS011;10349;48.666;8.948;2022-09-09T04:39:25;2.43;;;1.73;;
20379;SDS011;10349;48.666;8.948;2022-09-09T04:41:51;4.30;;;2.00;;
20379;SDS011;10349;48.666;8.948;2022-09-09T04:44:19;2.40;;;2.20;;
20379;SDS011;10349;48.666;8.948;2022-09-09T04:46:45;1.73;;;1.53;;
20379;SDS011;10349;48.666;8.948;2022-09-09T04:49:11;6.73;;;1.73;;
20379;SDS011;10349;48.666;8.948;2022-09-09T04:51:37;3.80;;;1.80;;
20379;SDS011;10349;48.666;8.948;2022-09-09T04:54:03;3.70;;;1.70;;
20379;SDS011;10349;48.666;8.948;2022-09-09T04:56:29;2.17;;;1.40;;
20379;SDS011;10349;48.666;8.948;2022-09-09T04:58:57;2.10;;;1.90;;
20379;SDS011;10349;48.666;8.948;2022-09-09T05:01:32;2.90;;;2.57;;
20379;SDS011;10349;48.666;8.948;2022-09-09T05:04:02;1.90;;;1.80;;
20379;SDS011;10349;48.666;8.948;2022-09-09T05:06:28;5.03;;;4.50;;
20379;SDS011;10349;48.666;8.948;2022-09-09T05:08:57;2.93;;;2.60;;
20379;SDS011;10349;48.666;8.948;2022-09-09T05:11:27;3.13;;;2.03;;
20379;SDS011;10349;48.666;8.948;2022-09-09T05:14:18;2.10;;;2.00;;
20379;SDS011;10349;48.666;8.948;2022-09-09T05:16:46;2.20;;;2.00;;
20379;SDS011;10349;48.666;8.948;2022-09-09T05:19:13;2.53;;;2.30;;
20379;SDS011;10349;48.666;8.948;2022-09-09T05:21:45;2.07;;;1.97;;
20379;SDS011;10349;48.666;8.948;2022-09-09T05:24:12;2.87;;;2.47;;
20379;SDS011;10349;48.666;8.948;2022-09-09T05:26:38;2.23;;;2.00;;
20379;SDS011;10349;48.666;8.948;2022-09-09T05:29:04;3.20;;;2.90;;
20379;SDS011;10349;48.666;8.948;2022-09-09T05:31:31;3.50;;;2.83;;
20379;SDS011;10349;48.666;8.948;2022-09-09T05:34:01;2.67;;;2.10;;
20379;SDS011;10349;48.666;8.948;2022-09-09T05:36:27;2.50;;;2.30;;
20379;SDS011;10349;48.666;8.948;2022-09-09T05:38:55;12.93;;;2.97;;
20379;SDS011;10349;48.666;8.948;2022-09-09T05:41:21;3.23;;;1.83;;
20379;SDS011;10349;48.666;8.948;2022-09-09T05:43:49;2.40;;;2.20;;
20379;SDS011;10349;48.666;8.948;2022-09-09T05:46:16;2.40;;;2.20;;
20379;SDS011;10349;48.666;8.948;2022-09-09T05:48:45;4.33;;;2.10;;
20379;SDS011;10349;48.666;8.948;2022-09-09T05:51:16;3.80;;;3.33;;
20379;SDS011;10349;48.666;8.948;2022-09-09T05:53:43;4.03;;;2.90;;
20379;SDS011;10349;48.666;8.948;2022-09-09T05:56:11;2.90;;;2.70;;
20379;SDS011;10349;48.666;8.948;2022-09-09T05:58:42;2.70;;;2.43;;
20379;SDS011;10349;48.666;8.948;2022-09-09T06:01:17;3.20;;;2.10;;
20379;SDS011;10349;48.666;8.948;2022-09-09T06:03:45;8.70;;;3.57;;
20379;SDS011;10349;48.666;8.948;2022-09-09T06:06:14;2.47;;;2.20;;
20379;SDS011;10349;48.666;8.948;2022-09-09T06:08:43;2.07;;;1.87;;
20379;SDS011;10349;48.666;8.948;2022-09-09T06:11:11;2.97;;;2.43;;
20379;SDS011;10349;48.666;8.948;2022-09-09T06:13:42;2.10;;;2.00;;
20379;SDS011;10349;48.666;8.948;2022-09-09T06:16:12;2.33;;;2.13;;
20379;SDS011;10349;48.666;8.948;2022-09-09T06:18:41;3.50;;;1.77;;
20379;SDS011;10349;48.666;8.948;2022-09-09T06:21:09;3.17;;;2.00;;
20379;SDS011;10349;48.666;8.948;2022-09-09T06:23:40;1.60;;;1.50;;
20379;SDS011;10349;48.666;8.948;2022-09-09T06:26:07;3.13;;;1.50;;
20379;SDS011;10349;48.666;8.948;2022-09-09T06:28:36;2.00;;;1.90;;
20379;SDS011;10349;48.666;8.948;2022-09-09T06:31:04;2.13;;;1.80;;
20379;SDS011;10349;48.666;8.948;2022-09-09T06:33:32;1.70;;;1.57;;
20379;SDS011;10349;48.666;8.948;2022-09-09T06:36:01;3.20;;;1.90;;
20379;SDS011;10349;48.666;8.948;2022-09-09T06:38:29;3.47;;;2.30;;
20379;SDS011;10349;48.666;8.948;2022-09-09T06:40:55;1.80;;;1.70;;
20379;SDS011;10349;48.666;8.948;2022-09-09T06:43:23;9.10;;;1.93;;
20379;SDS011;10349;48.666;8.948;2022-09-09T06:45:53;3.37;;;1.77;;
20379;SDS011;10349;48.666;8.948;2022-09-09T06:48:23;3.77;;;2.20;;
20379;SDS011;10349;48.666;8.948;2022-09-09T06:50:51;2.80;;;1.83;;
20379;SDS011;10349;48.666;8.948;2022-09-09T06:53:45;1.50;;;1.40;;
20379;SDS011;10349;48.666;8.948;2022-09-09T06:56:17;3.93;;;1.60;;
20379;SDS011;10349;48.666;8.948;2022-09-09T06:58:44;3.43;;;2.20;;
20379;SDS011;10349;48.666;8.948;2022-09-09T07:01:17;5.60;;;2.37;;
20379;SDS011;10349;48.666;8.948;2022-09-09T07:03:45;1.50;;;1.40;;
20379;SDS011;10349;48.666;8.948;2022-09-09T07:06:18;6.20;;;1.70;;
20379;SDS011;10349;48.666;8.948;2022-09-09T07:08:49;2.10;;;1.57;;
20379;SDS011;10349;48.666;8.948;2022-09-09T07:11:16;1.70;;;1.50;;
20379;SDS011;10349;48.666;8.948;2022-09-09T07:13:44;1.73;;;1.63;;
20379;SDS011;10349;48.666;8.948;2022-09-09T07:16:11;2.80;;;1.57;;
20379;SDS011;10349;48.666;8.948;2022-09-09T07:18:40;1.57;;;1.47;;
20379;SDS011;10349;48.666;8.948;2022-09-09T07:21:07;1.70;;;1.60;;
20379;SDS011;10349;48.666;8.948;2022-09-09T07:23:34;5.27;;;1.90;;
20379;SDS011;10349;48.666;8.948;2022-09-09T07:26:01;1.87;;;1.43;;
20379;SDS011;10349;48.666;8.948;2022-09-09T07:28:28;1.77;;;1.53;;
20379;SDS011;10349;48.666;8.948;2022-09-09T07:30:56;2.37;;;1.87;;
20379;SDS011;10349;48.666;8.948;2022-09-09T07:33:25;1.30;;;1.20;;
20379;SDS011;10349;48.666;8.948;2022-09-09T07:35:51;2.27;;;1.50;;
20379;SDS011;10349;48.666;8.948;2022-09-09T07:38:18;6.27;;;1.97;;
20379;SDS011;10349;48.666;8.948;2022-09-09T07:40:45;2.90;;;1.90;;
20379;SDS011;10349;48.666;8.948;2022-09-09T07:43:11;2.53;;;1.83;;
20379;SDS011;10349;48.666;8.948;2022-09-09T07:45:37;1.93;;;1.60;;
20379;SDS011;10349;48.666;8.948;2022-09-09T07:48:05;2.00;;;1.40;;
20379;SDS011;10349;48.666;8.948;2022-09-09T07:50:32;1.60;;;1.50;;
20379;SDS011;10349;48.666;8.948;2022-09-09T07:52:58;3.63;;;2.00;;
20379;SDS011;10349;48.666;8.948;2022-09-09T07:55:24;1.57;;;1.40;;
20379;SDS011;10349;48.666;8.948;2022-09-09T07:57:52;3.60;;;1.63;;
20379;SDS011;10349;48.666;8.948;2022-09-09T08:00:19;2.80;;;1.23;;
20379;SDS011;10349;48.666;8.948;2022-09-09T08:02:51;2.07;;;1.60;;
20379;SDS011;10349;48.666;8.948;2022-09-09T08:05:19;2.77;;;1.63;;
20379;SDS011;10349;48.666;8.948;2022-09-09T08:07:46;1.20;;;1.10;;
20379;SDS011;10349;48.666;8.948;2022-09-09T08:10:13;1.83;;;1.73;;
20379;SDS011;10349;48.666;8.948;2022-09-09T08:12:41;2.80;;;2.13;;
20379;SDS011;10349;48.666;8.948;2022-09-09T08:15:07;1.47;;;1.37;;
20379;SDS011;10349;48.666;8.948;2022-09-09T08:17:33;1.87;;;1.77;;
20379;SDS011;10349;48.666;8.948;2022-09-09T08:20:03;5.40;;;1.90;;
20379;SDS011;10349;48.666;8.948;2022-09-09T08:22:32;4.57;;;1.73;;
20379;SDS011;10349;48.666;8.948;2022-09-09T08:24:59;2.93;;;1.83;;
20379;SDS011;10349;48.666;8.948;2022-09-09T08:27:25;9.43;;;1.60;;
20379;SDS011;10349;48.666;8.948;2022-09-09T08:29:52;2.13;;;1.50;;
20379;SDS011;10349;48.666;8.948;2022-09-09T08:32:18;1.90;;;1.73;;
20379;SDS011;10349;48.666;8.948;2022-09-09T08:34:44;1.50;;;1.37;;
20379;SDS011;10349;48.666;8.948;2022-09-09T08:37:14;3.27;;;1.43;;
20379;SDS011;10349;48.666;8.948;2022-09-09T08:39:41;1.40;;;1.03;;
20379;SDS011;10349;48.666;8.948;2022-09-09T08:47:55;2.30;;;1.50;;
20379;SDS011;10349;48.666;8.948;2022-09-09T08:50:30;1.60;;;1.50;;
20379;SDS011;10349;48.666;8.948;2022-09-09T08:58:21;0.90;;;0.60;;
20379;SDS011;10349;48.666;8.948;2022-09-09T09:12:19;4.40;;;1.40;;
20379;SDS011;10349;48.666;8.948;2022-09-09T09:14:48;1.17;;;1.07;;
20379;SDS011;10349;48.666;8.948;2022-09-09T09:19:44;2.03;;;1.00;;
20379;SDS011;10349;48.666;8.948;2022-09-09T09:30:39;2.57;;;1.57;;
20379;SDS011;10349;48.666;8.948;2022-09-09T09:36:13;1.60;;;1.50;;
20379;SDS011;10349;48.666;8.948;2022-09-09T09:38:57;4.80;;;1.43;;
20379;SDS011;10349;48.666;8.948;2022-09-09T09:41:29;1.60;;;1.50;;
20379;SDS011;10349;48.666;8.948;2022-09-09T09:44:03;3.20;;;1.80;;
20379;SDS011;10349;48.666;8.948;2022-09-09T09:46:30;1.80;;;1.70;;
20379;SDS011;10349;48.666;8.948;2022-09-09T09:49:05;3.00;;;1.90;;
20379;SDS011;10349;48.666;8.948;2022-09-09T09:51:34;1.90;;;1.57;;
20379;SDS011;10349;48.666;8.948;2022-09-09T09:56:41;2.20;;;1.40;;
20379;SDS011;10349;48.666;8.948;2022-09-09T10:01:53;1.70;;;1.60;;
20379;SDS011;10349;48.666;8.948;2022-09-09T10:04:21;2.13;;;1.47;;
20379;SDS011;10349;48.666;8.948;2022-09-09T10:06:50;2.30;;;1.43;;
20379;SDS011;10349;48.666;8.948;2022-09-09T10:09:24;1.93;;;1.40;;
20379;SDS011;10349;48.666;8.948;2022-09-09T10:14:55;1.73;;;1.63;;
20379;SDS011;10349;48.666;8.948;2022-09-09T10:26:40;2.00;;;1.50;;
20379;SDS011;10349;48.666;8.948;2022-09-09T10:29:22;2.00;;;1.67;;
20379;SDS011;10349;48.666;8.948;2022-09-09T10:34:41;1.30;;;0.90;;
20379;SDS011;10349;48.666;8.948;2022-09-09T10:40:08;1.93;;;1.40;;
20379;SDS011;10349;48.666;8.948;2022-09-09T10:43:09;2.30;;;1.13;;
20379;SDS011;10349;48.666;8.948;2022-09-09T10:45:45;2.03;;;1.20;;
20379;SDS011;10349;48.666;8.948;2022-09-09T10:54:21;2.40;;;1.20;;
20379;SDS011;10349;48.666;8.948;2022-09-09T10:57:13;2.40;;;0.90;;
20379;SDS011;10349;48.666;8.948;2022-09-09T10:59:50;2.17;;;1.00;;
20379;SDS011;10349;48.666;8.948;2022-09-09T11:02:28;3.83;;;1.63;;
20379;SDS011;10349;48.666;8.948;2022-09-09T11:04:57;2.90;;;1.10;;
20379;SDS011;10349;48.666;8.948;2022-09-09T11:07:33;2.77;;;1.20;;
20379;SDS011;10349;48.666;8.948;2022-09-09T11:10:06;5.53;;;1.70;;
20379;SDS011;10349;48.666;8.948;2022-09-09T11:12:42;2.60;;;0.80;;
20379;SDS011;10349;48.666;8.948;2022-09-09T11:15:20;7.40;;;1.43;;
20379;SDS011;10349;48.666;8.948;2022-09-09T11:17:55;1.60;;;1.07;;
20379;SDS011;10349;48.666;8.948;2022-09-09T11:20:22;1.07;;;0.90;;
20379;SDS011;10349;48.666;8.948;2022-09-09T11:22:55;1.93;;;0.83;;
20379;SDS011;10349;48.666;8.948;2022-09-09T11:25:27;0.90;;;0.80;;
20379;SDS011;10349;48.666;8.948;2022-09-09T11:28:05;0.90;;;0.60;;
20379;SDS011;10349;48.666;8.948;2022-09-09T11:39:00;0.80;;;0.60;;
20379;SDS011;10349;48.666;8.948;2022-09-09T11:41:46;0.80;;;0.50;;
20379;SDS011;10349;48.666;8.948;2022-09-09T11:44:12;0.80;;;0.50;;
20379;SDS011;10349;48.666;8.948;2022-09-09T11:46:46;2.90;;;0.60;;
20379;SDS011;10349;48.666;8.948;2022-09-09T11:54:54;0.90;;;0.50;;
20379;SDS011;10349;48.666;8.948;2022-09-09T12:00:00;1.57;;;0.60;;
20379;SDS011;10349;48.666;8.948;2022-09-09T12:02:27;0.90;;;0.60;;
20379;SDS011;10349;48.666;8.948;2022-09-09T12:05:07;0.97;;;0.60;;
20379;SDS011;10349;48.666;8.948;2022-09-09T12:12:45;3.83;;;0.63;;
20379;SDS011;10349;48.666;8.948;2022-09-09T12:17:41;0.80;;;0.60;;
20379;SDS011;10349;48.666;8.948;2022-09-09T12:28:11;1.00;;;0.90;;
20379;SDS011;10349;48.666;8.948;2022-09-09T12:33:42;1.00;;;0.70;;
20379;SDS011;10349;48.666;8.948;2022-09-09T12:36:18;3.00;;;0.90;;
20379;SDS011;10349;48.666;8.948;2022-09-09T12:38:45;1.13;;;1.00;;
20379;SDS011;10349;48.666;8.948;2022-09-09T12:41:50;2.43;;;0.80;;
20379;SDS011;10349;48.666;8.948;2022-09-09T12:44:04;1.07;;;0.70;;
20379;SDS011;10349;48.666;8.948;2022-09-09T12:46:41;1.77;;;1.00;;
20379;SDS011;10349;48.666;8.948;2022-09-09T12:52:41;1.30;;;0.90;;
20379;SDS011;10349;48.666;8.948;2022-09-09T12:54:55;1.13;;;1.03;;
20379;SDS011;10349;48.666;8.948;2022-09-09T12:57:22;5.03;;;0.80;;
20379;SDS011;10349;48.666;8.948;2022-09-09T12:59:50;1.00;;;0.80;;
20379;SDS011;10349;48.666;8.948;2022-09-09T13:02:23;2.53;;;0.77;;
20379;SDS011;10349;48.666;8.948;2022-09-09T13:04:51;1.30;;;1.03;;
20379;SDS011;10349;48.666;8.948;2022-09-09T13:07:19;1.10;;;0.70;;
20379;SDS011;10349;48.666;8.948;2022-09-09T13:09:45;1.00;;;0.60;;
20379;SDS011;10349;48.666;8.948;2022-09-09T13:12:19;0.90;;;0.70;;
20379;SDS011;10349;48.666;8.948;2022-09-09T13:14:53;1.00;;;0.80;;
20379;SDS011;10349;48.666;8.948;2022-09-09T13:17:25;1.20;;;0.90;;
20379;SDS011;10349;48.666;8.948;2022-09-09T13:19:53;1.20;;;0.77;;
20379;SDS011;10349;48.666;8.948;2022-09-09T13:22:29;1.07;;;0.70;;
20379;SDS011;10349;48.666;8.948;2022-09-09T13:25:17;5.43;;;1.00;;
20379;SDS011;10349;48.666;8.948;2022-09-09T13:27:51;1.80;;;1.13;;
20379;SDS011;10349;48.666;8.948;2022-09-09T13:35:26;1.30;;;1.20;;
20379;SDS011;10349;48.666;8.948;2022-09-09T13:37:52;3.07;;;0.67;;
20379;SDS011;10349;48.666;8.948;2022-09-09T13:40:20;2.70;;;0.80;;
20379;SDS011;10349;48.666;8.948;2022-09-09T13:42:47;1.00;;;0.67;;
20379;SDS011;10349;48.666;8.948;2022-09-09T13:45:18;1.13;;;0.63;;
20379;SDS011;10349;48.666;8.948;2022-09-09T13:47:45;1.40;;;0.87;;
20379;SDS011;10349;48.666;8.948;2022-09-09T13:50:19;5.40;;;0.83;;
20379;SDS011;10349;48.666;8.948;2022-09-09T13:52:54;1.20;;;0.60;;
20379;SDS011;10349;48.666;8.948;2022-09-09T13:55:21;1.27;;;0.80;;
20379;SDS011;10349;48.666;8.948;2022-09-09T13:57:55;1.50;;;0.73;;
20379;SDS011;10349;48.666;8.948;2022-09-09T14:00:24;0.90;;;0.60;;
20379;SDS011;10349;48.666;8.948;2022-09-09T14:02:50;0.90;;;0.50;;
20379;SDS011;10349;48.666;8.948;2022-09-09T14:05:16;1.90;;;0.73;;
20379;SDS011;10349;48.666;8.948;2022-09-09T14:07:43;2.03;;;0.73;;
20379;SDS011;10349;48.666;8.948;2022-09-09T14:10:09;2.60;;;0.70;;
20379;SDS011;10349;48.666;8.948;2022-09-09T14:12:36;1.63;;;0.80;;
20379;SDS011;10349;48.666;8.948;2022-09-09T14:15:02;1.57;;;0.60;;
20379;SDS011;10349;48.666;8.948;2022-09-09T14:17:29;1.40;;;0.60;;
20379;SDS011;10349;48.666;8.948;2022-09-09T14:19:55;1.50;;;0.80;;
20379;SDS011;10349;48.666;8.948;2022-09-09T14:22:21;0.90;;;0.60;;
20379;SDS011;10349;48.666;8.948;2022-09-09T14:24:47;0.90;;;0.60;;
20379;SDS011;10349;48.666;8.948;2022-09-09T14:27:14;0.90;;;0.60;;
20379;SDS011;10349;48.666;8.948;2022-09-09T14:29:40;3.20;;;0.70;;
20379;SDS011;10349;48.666;8.948;2022-09-09T14:32:05;0.80;;;0.50;;
20379;SDS011;10349;48.666;8.948;2022-09-09T14:34:31;0.80;;;0.60;;
20379;SDS011;10349;48.666;8.948;2022-09-09T14:37:00;1.00;;;0.73;;
20379;SDS011;10349;48.666;8.948;2022-09-09T14:39:26;1.10;;;1.00;;
20379;SDS011;10349;48.666;8.948;2022-09-09T14:41:51;1.00;;;0.60;;
20379;SDS011;10349;48.666;8.948;2022-09-09T14:44:17;1.30;;;0.70;;
20379;SDS011;10349;48.666;8.948;2022-09-09T14:46:43;5.00;;;0.83;;
20379;SDS011;10349;48.666;8.948;2022-09-09T14:49:09;1.03;;;0.70;;
20379;SDS011;10349;48.666;8.948;2022-09-09T14:51:35;2.10;;;0.83;;
20379;SDS011;10349;48.666;8.948;2022-09-09T14:54:02;1.60;;;0.80;;
20379;SDS011;10349;48.666;8.948;2022-09-09T14:56:29;7.00;;;0.90;;
20379;SDS011;10349;48.666;8.948;2022-09-09T14:58:59;1.87;;;0.80;;
20379;SDS011;10349;48.666;8.948;2022-09-09T15:01:25;3.70;;;0.80;;
20379;SDS011;10349;48.666;8.948;2022-09-09T15:03:53;2.80;;;0.70;;
20379;SDS011;10349;48.666;8.948;2022-09-09T15:06:20;1.07;;;0.87;;
20379;SDS011;10349;48.666;8.948;2022-09-09T15:08:49;0.90;;;0.70;;
20379;SDS011;10349;48.666;8.948;2022-09-09T15:11:15;4.63;;;1.00;;
20379;SDS011;10349;48.666;8.948;2022-09-09T15:13:42;4.00;;;1.17;;
20379;SDS011;10349;48.666;8.948;2022-09-09T15:16:12;1.90;;;0.90;;
20379;SDS011;10349;48.666;8.948;2022-09-09T15:18:39;1.00;;;0.60;;
20379;SDS011;10349;48.666;8.948;2022-09-09T15:21:08;1.00;;;0.60;;
20379;SDS011;10349;48.666;8.948;2022-09-09T15:23:35;1.20;;;0.70;;
20379;SDS011;10349;48.666;8.948;2022-09-09T15:26:02;0.90;;;0.63;;
20379;SDS011;10349;48.666;8.948;2022-09-09T15:28:28;2.00;;;0.90;;
20379;SDS011;10349;48.666;8.948;2022-09-09T15:30:54;1.00;;;0.70;;
20379;SDS011;10349;48.666;8.948;2022-09-09T15:33:21;1.33;;;0.70;;
20379;SDS011;10349;48.666;8.948;2022-09-09T15:35:47;1.07;;;0.90;;
20379;SDS011;10349;48.666;8.948;2022-09-09T15:38:15;0.90;;;0.60;;
20379;SDS011;10349;48.666;8.948;2022-09-09T15:40:42;2.83;;;0.60;;
20379;SDS011;10349;48.666;8.948;2022-09-09T15:43:08;6.50;;;0.70;;
20379;SDS011;10349;48.666;8.948;2022-09-09T15:45:35;1.40;;;0.73;;
20379;SDS011;10349;48.666;8.948;2022-09-09T15:48:02;2.40;;;0.60;;
20379;SDS011;10349;48.666;8.948;2022-09-09T15:50:29;1.30;;;0.80;;
20379;SDS011;10349;48.666;8.948;2022-09-09T15:52:58;0.90;;;0.60;;
20379;SDS011;10349;48.666;8.948;2022-09-09T15:55:24;2.37;;;0.80;;
20379;SDS011;10349;48.666;8.948;2022-09-09T15:57:51;1.40;;;0.73;;
20379;SDS011;10349;48.666;8.948;2022-09-09T16:00:18;1.10;;;0.90;;
20379;SDS011;10349;48.666;8.948;2022-09-09T16:02:46;1.17;;;0.70;;
20379;SDS011;10349;48.666;8.948;2022-09-09T16:05:12;1.27;;;1.17;;
20379;SDS011;10349;48.666;8.948;2022-09-09T16:07:38;0.90;;;0.53;;
20379;SDS011;10349;48.666;8.948;2022-09-09T16:10:04;0.90;;;0.63;;
20379;SDS011;10349;48.666;8.948;2022-09-09T16:12:30;1.73;;;0.90;;
20379;SDS011;10349;48.666;8.948;2022-09-09T16:14:56;1.00;;;0.70;;
20379;SDS011;10349;48.666;8.948;2022-09-09T16:17:21;1.10;;;0.73;;
20379;SDS011;10349;48.666;8.948;2022-09-09T16:19:47;1.93;;;0.90;;
20379;SDS011;10349;48.666;8.948;2022-09-09T16:22:13;1.03;;;0.70;;
20379;SDS011;10349;48.666;8.948;2022-09-09T16:24:40;2.43;;;0.60;;
20379;SDS011;10349;48.666;8.948;2022-09-09T16:27:06;1.60;;;0.77;;
20379;SDS011;10349;48.666;8.948;2022-09-09T16:29:32;1.77;;;0.60;;
20379;SDS011;10349;48.666;8.948;2022-09-09T16:31:58;1.87;;;0.90;;
20379;SDS011;10349;48.666;8.948;2022-09-09T16:34:25;1.47;;;0.87;;
20379;SDS011;10349;48.666;8.948;2022-09-09T16:36:51;2.53;;;0.80;;
20379;SDS011;10349;48.666;8.948;2022-09-09T16:39:17;0.80;;;0.57;;
20379;SDS011;10349;48.666;8.948;2022-09-09T16:41:44;0.90;;;0.70;;
20379;SDS011;10349;48.666;8.948;2022-09-09T16:44:12;0.90;;;0.70;;
20379;SDS011;10349;48.666;8.948;2022-09-09T16:46:41;0.90;;;0.60;;
20379;SDS011;10349;48.666;8.948;2022-09-09T16:49:08;0.80;;;0.50;;
20379;SDS011;10349;48.666;8.948;2022-09-09T16:51:40;0.90;;;0.60;;
20379;SDS011;10349;48.666;8.948;2022-09-09T16:54:11;3.13;;;0.60;;
20379;SDS011;10349;48.666;8.948;2022-09-09T16:56:39;0.90;;;0.70;;
20379;SDS011;10349;48.666;8.948;2022-09-09T16:59:14;4.90;;;0.93;;
20379;SDS011;10349;48.666;8.948;2022-09-09T17:01:42;1.23;;;0.90;;
20379;SDS011;10349;48.666;8.948;2022-09-09T17:04:10;0.80;;;0.60;;
20379;SDS011;10349;48.666;8.948;2022-09-09T17:06:38;1.00;;;0.70;;
20379;SDS011;10349;48.666;8.948;2022-09-09T17:09:05;2.40;;;0.70;;
20379;SDS011;10349;48.666;8.948;2022-09-09T17:11:32;1.00;;;0.80;;
20379;SDS011;10349;48.666;8.948;2022-09-09T17:13:58;1.07;;;0.60;;
20379;SDS011;10349;48.666;8.948;2022-09-09T17:16:26;0.90;;;0.70;;
20379;SDS011;10349;48.666;8.948;2022-09-09T17:18:54;2.40;;;0.70;;
20379;SDS011;10349;48.666;8.948;2022-09-09T17:21:21;0.90;;;0.60;;
20379;SDS011;10349;48.666;8.948;2022-09-09T17:23:49;1.10;;;0.60;;
20379;SDS011;10349;48.666;8.948;2022-09-09T17:26:16;1.93;;;0.90;;
20379;SDS011;10349;48.666;8.948;2022-09-09T17:28:43;2.80;;;1.00;;
20379;SDS011;10349;48.666;8.948;2022-09-09T17:31:11;3.77;;;0.90;;
20379;SDS011;10349;48.666;8.948;2022-09-09T17:33:38;1.00;;;0.60;;
20379;SDS011;10349;48.666;8.948;2022-09-09T17:36:16;1.57;;;0.60;;
20379;SDS011;10349;48.666;8.948;2022-09-09T17:38:44;1.10;;;1.00;;
20379;SDS011;10349;48.666;8.948;2022-09-09T17:43:41;1.23;;;1.13;;
20379;SDS011;10349;48.666;8.948;2022-09-09T17:46:11;1.00;;;0.70;;
20379;SDS011;10349;48.666;8.948;2022-09-09T17:48:39;3.27;;;0.70;;
20379;SDS011;10349;48.666;8.948;2022-09-09T17:51:07;0.90;;;0.70;;